Time;durP1;ratioP1;P1;durP2;ratioP2;P2;SDS_P1;SDS_P2;PMS_P1;PMS_P2;Temp;Humidity;BMP_temperature;BMP_pressure;BME280_temperature;BME280_humidity;BME280_pressure;Samples;Min_cycle;Max_cycle;Signal;HPM_P1;HPM_P2
2022/11/18 00:14:55;;;;;;;;;;;;;;;;;;;;;
2022/11/18 00:17:54;;;;;;;;;;;;;;;;;;;;;
2022/11/18 00:20:23;;;;;;;34.28;20.98;;;;;;;;;;4852464;29;20109;-96
2022/11/18 00:23:28;;;;;;;;;;;;;;;;;;;;;
2022/11/18 00:42:49;;;;;;;34.70;22.15;;;;;;;;;;4938005;29;20122;-96
2022/11/18 00:44:27;;;;;;;;;;;;;;;;;;4965246;29;20039;-96
2022/11/18 00:47:32;;;;;;;;;;;;;;;;;;;;;
2022/11/18 00:50:29;;;;;;;;;;;;;;;;;;;;;
2022/11/18 00:53:14;;;;;;;;;;;;;;;;;;;;;
2022/11/18 00:56:59;;;;;;;;;;;;;;;;;;;;;
2022/11/18 01:02:53;;;;;;;34.08;22.80;;;;;;;;;;4923922;29;20047;-96
2022/11/18 01:34:10;;;;;;;;;;;;;;;;;;;;;
2022/11/18 01:36:58;;;;;;;;;;;;;;;;;;;;;
2022/11/18 01:42:38;;;;;;;51.15;29.88;;;;;;;;;;4843362;29;20040;-96
2022/11/18 01:45:43;;;;;;;44.80;28.95;;;;;;;;;;4831321;29;20038;-96
2022/11/18 01:55:10;;;;;;;;;;;;;;;;;;;;;
2022/11/18 02:04:36;;;;;;;;;;;;;;;;;;;;;
2022/11/18 02:07:21;;;;;;;;;;;;;;;;;;;;;
2022/11/18 02:09:52;;;;;;;41.33;25.60;;;;;;;;;;4962729;29;20536;-96
2022/11/18 02:12:22;;;;;;;43.47;27.65;;;;;;;;;;4944705;29;20043;-96
2022/11/18 02:15:11;;;;;;;36.63;24.67;;;;;;;;;;4942057;29;20059;-96
2022/11/18 02:21:32;;;;;;;30.35;20.50;;;;;;;;;;4949969;29;20357;-96
2022/11/18 02:24:20;;;;;;;31.90;21.27;;;;;;;;;;4961606;29;20027;-96
2022/11/18 02:27:02;;;;;;;;;;;;;;;;;;;;;
2022/11/18 02:29:47;;;;;;;;;;;;;;;;;;;;;
2022/11/18 02:32:30;;;;;;;;;;;;;;;;;;;;;
2022/11/18 02:35:28;;;;;;;40.55;25.42;;;;;;;;;;4961667;29;20114;-96
2022/11/18 02:38:17;;;;;;;36.22;23.80;;;;;;;;;;4961777;29;20079;-96
2022/11/18 02:41:00;;;;;;;;;;;;;;;;;;;;;
2022/11/18 02:43:57;;;;;;;31.48;20.73;;;;;;;;;;4961513;29;20106;-96
2022/11/18 02:46:29;;;;;;;30.48;19.17;;;;;;;;;;4943474;29;20500;-96
2022/11/18 02:49:22;;;;;;;31.17;20.73;;;;;;;;;;4942591;29;20031;-96
2022/11/18 02:52:19;;;;;;;;;;;;;;;;;;;;;
2022/11/18 02:55:13;;;;;;;31.33;20.75;;;;;;;;;;4958766;29;20134;-96
2022/11/18 02:58:08;;;;;;;;;;;;;;;;;;;;;
2022/11/18 03:01:00;;;;;;;29.30;19.48;;;;;;;;;;4961905;29;20110;-95
2022/11/18 03:07:10;;;;;;;;;;;;;;;;;;;;;
2022/11/18 03:10:09;;;;;;;;;;;;;;;;;;;;;
2022/11/18 03:16:03;;;;;;;27.95;19.20;;;;;;;;;;4884859;29;20069;-96
2022/11/18 03:19:08;;;;;;;28.42;19.27;;;;;;;;;;4850423;29;20462;-96
2022/11/18 03:33:54;;;;;;;28.13;16.48;;;;;;;;;;4890642;29;19956;-96
2022/11/18 03:36:52;;;;;;;;;;;;;;;;;;;;;
2022/11/18 03:39:32;;;;;;;26.65;18.30;;;;;;;;;;4910359;29;20099;-96
2022/11/18 03:42:49;;;;;;;;;;;;;;;;;;;;;
2022/11/18 03:45:41;;;;;;;;;;;;;;;;;;;;;
2022/11/18 03:48:45;;;;;;;32.58;18.73;;;;;;;;;;4961533;29;20095;-96
2022/11/18 03:51:38;;;;;;;;;;;;;;;;;;;;;
2022/11/18 03:57:21;;;;;;;;;;;;;;;;;;;;;
2022/11/18 04:18:16;;;;;;;35.33;22.95;;;;;;;;;;4894417;29;20053;-96
2022/11/18 04:21:02;;;;;;;;;;;;;;;;;;4891124;29;20064;-96
2022/11/18 04:27:35;;;;;;;;;;;;;;;;;;;;;
2022/11/18 04:33:08;;;;;;;37.70;24.00;;;;;;;;;;4884510;29;20077;-96
2022/11/18 04:36:22;;;;;;;35.88;23.08;;;;;;;;;;4887517;29;20048;-96
2022/11/18 04:39:24;;;;;;;;;;;;;;;;;;;;;
2022/11/18 04:42:44;;;;;;;;;;;;;;;;;;;;;
2022/11/18 04:52:08;;;;;;;;;;;;;;;;;;;;;
2022/11/18 04:55:47;;;;;;;;;;;;;;;;;;;;;
2022/11/18 05:17:46;;;;;;;;;;;;;;;;;;;;;
2022/11/18 05:29:35;;;;;;;;;;;;;;;;;;;;;
2022/11/18 05:32:37;;;;;;;32.67;20.40;;;;;;;;;;4959311;29;20066;-96
2022/11/18 05:35:21;;;;;;;30.67;20.40;;;;;;;;;;5016686;23;20064;-96
2022/11/18 05:50:34;;;;;;;31.05;19.45;;;;;;;;;;4901292;29;20033;-96
2022/11/18 05:57:21;;;;;;;25.88;17.02;;;;;;;;;;4865871;29;20094;-96
2022/11/18 06:02:35;;;;;;;29.25;18.67;;;;;;;;;;4884021;29;20062;-96
2022/11/18 06:08:43;;;;;;;29.75;19.80;;;;;;;;;;4892779;29;20029;-96
2022/11/18 06:11:20;;;;;;;33.60;19.63;;;;;;;;;;4889055;29;20053;-96
2022/11/18 06:24:22;;;;;;;35.97;22.33;;;;;;;;;;4792995;29;20040;-96
2022/11/18 06:26:49;;;;;;;38.75;23.15;;;;;;;;;;4787234;30;20126;-96
2022/11/18 06:29:26;;;;;;;37.42;23.52;;;;;;;;;;4796315;30;20448;-96
2022/11/18 06:32:40;;;;;;;33.38;21.67;;;;;;;;;;4794612;29;20047;-96
2022/11/18 06:35:13;;;;;;;32.55;21.38;;;;;;;;;;5109484;23;20505;-96
2022/11/18 06:37:39;;;;;;;34.73;21.17;;;;;;;;;;4901767;29;20063;-96
2022/11/18 06:40:06;;;;;;;38.05;23.92;;;;;;;;;;4918962;29;20096;-96
2022/11/18 06:45:23;;;;;;;41.13;24.15;;;;;;;;;;4924440;29;20039;-95
2022/11/18 06:47:49;;;;;;;38.85;23.40;;;;;;;;;;4920641;29;20481;-96
2022/11/18 06:50:19;;;;;;;39.42;23.15;;;;;;;;;;4919743;29;20097;-96
2022/11/18 06:52:45;;;;;;;40.20;21.95;;;;;;;;;;4919264;29;20130;-94
2022/11/18 06:55:11;;;;;;;40.13;23.52;;;;;;;;;;4921805;29;20074;-95
2022/11/18 06:57:37;;;;;;;39.95;23.02;;;;;;;;;;4921348;29;20036;-94
2022/11/18 07:00:09;;;;;;;42.63;23.15;;;;;;;;;;4927100;29;20020;-96
2022/11/18 07:02:36;;;;;;;38.95;22.77;;;;;;;;;;4924737;29;20028;-96
2022/11/18 07:05:03;;;;;;;49.88;25.65;;;;;;;;;;4926151;29;20060;-96
2022/11/18 07:07:54;;;;;;;47.75;24.73;;;;;;;;;;4929003;29;20666;-96
2022/11/18 07:10:20;;;;;;;57.08;27.38;;;;;;;;;;4929814;29;20025;-95
2022/11/18 07:12:50;;;;;;;51.47;26.83;;;;;;;;;;4925478;29;20046;-95
2022/11/18 07:16:12;;;;;;;53.05;27.60;;;;;;;;;;4910865;29;20091;-96
2022/11/18 07:18:41;;;;;;;42.25;23.48;;;;;;;;;;4934021;29;20044;-96
2022/11/18 07:21:14;;;;;;;33.72;20.15;;;;;;;;;;5086499;23;20020;-95
2022/11/18 07:24:01;;;;;;;36.80;22.58;;;;;;;;;;4915927;29;20020;-95
2022/11/18 07:26:37;;;;;;;37.42;22.15;;;;;;;;;;4914017;29;20036;-96
2022/11/18 07:29:16;;;;;;;;;;;;;;;;;;;;;
2022/11/18 07:31:55;;;;;;;46.42;24.15;;;;;;;;;;4871592;29;20147;-96
2022/11/18 07:34:45;;;;;;;;;;;;;;;;;;;;;
2022/11/18 07:40:39;;;;;;;57.85;26.58;;;;;;;;;;4960747;23;20058;-96
2022/11/18 07:52:10;;;;;;;68.47;28.95;;;;;;;;;;4945458;29;20046;-93
2022/11/18 07:57:24;;;;;;;71.18;28.52;;;;;;;;;;4911108;29;20126;-95
2022/11/18 08:00:03;;;;;;;60.63;28.67;;;;;;;;;;4924005;29;20056;-94
2022/11/18 08:02:29;;;;;;;60.63;28.05;;;;;;;;;;4941841;29;20031;-94
2022/11/18 08:04:55;;;;;;;65.38;30.80;;;;;;;;;;4923442;29;20469;-93
2022/11/18 08:07:24;;;;;;;58.22;28.83;;;;;;;;;;4923909;29;20031;-94
2022/11/18 08:12:40;;;;;;;51.65;27.92;;;;;;;;;;4944998;29;20095;-94
2022/11/18 08:15:07;;;;;;;48.22;25.48;;;;;;;;;;4922834;29;20040;-94
2022/11/18 08:17:51;;;;;;;;;;;;;;;;;;;;;
2022/11/18 08:20:20;;;;;;;54.22;27.50;;;;;;;;;;4923720;29;20020;-96
2022/11/18 08:22:55;;;;;;;58.28;29.55;;;;;;;;;;4925882;29;20475;-93
2022/11/18 08:25:22;;;;;;;49.38;27.83;;;;;;;;;;4890145;29;20036;-93
2022/11/18 08:27:51;;;;;;;63.22;29.90;;;;;;;;;;4920634;29;20035;-94
2022/11/18 08:30:18;;;;;;;55.63;27.75;;;;;;;;;;4922170;29;20040;-94
2022/11/18 08:32:45;;;;;;;55.15;29.35;;;;;;;;;;4921587;29;20099;-93
2022/11/18 08:35:11;;;;;;;65.85;30.95;;;;;;;;;;4920384;29;20088;-94
2022/11/18 08:37:41;;;;;;;75.30;32.90;;;;;;;;;;4919865;29;20036;-92
2022/11/18 08:40:07;;;;;;;69.80;31.42;;;;;;;;;;4920936;29;20052;-92
2022/11/18 08:42:33;;;;;;;78.75;33.10;;;;;;;;;;4919793;29;20035;-93
2022/11/18 08:44:59;;;;;;;68.97;32.45;;;;;;;;;;4919411;29;20027;-95
2022/11/18 08:47:26;;;;;;;77.53;35.80;;;;;;;;;;4920320;29;20028;-94
2022/11/18 08:52:36;;;;;;;74.78;32.70;;;;;;;;;;4922429;29;20557;-96
2022/11/18 08:55:03;;;;;;;72.43;34.15;;;;;;;;;;4921141;29;20038;-95
2022/11/18 09:02:54;;;;;;;65.32;32.50;;;;;;;;;;4941323;29;20054;-94
2022/11/18 09:05:39;;;;;;;63.42;31.98;;;;;;;;;;4944859;29;20047;-95
2022/11/18 09:08:16;;;;;;;61.92;32.13;;;;;;;;;;4926438;29;20082;-96
2022/11/18 09:10:42;;;;;;;65.18;33.40;;;;;;;;;;4925072;29;20019;-96
2022/11/18 09:13:29;;;;;;;63.42;32.20;;;;;;;;;;4950652;29;20023;-96
2022/11/18 09:29:37;;;;;;;57.60;32.65;;;;;;;;;;5262495;23;20058;-92
2022/11/18 09:32:13;;;;;;;54.97;31.88;;;;;;;;;;4903710;29;20052;-96
2022/11/18 09:34:46;;;;;;;52.67;29.70;;;;;;;;;;4904190;29;20024;-96
2022/11/18 09:37:12;;;;;;;52.88;30.23;;;;;;;;;;4904223;29;20544;-94
2022/11/18 09:39:38;;;;;;;52.22;30.10;;;;;;;;;;4905245;29;20024;-92
2022/11/18 09:42:13;;;;;;;55.63;31.65;;;;;;;;;;4905423;29;20032;-93
2022/11/18 09:47:46;;;;;;;53.58;29.35;;;;;;;;;;4914543;29;20195;-94
2022/11/18 09:50:13;;;;;;;49.72;27.08;;;;;;;;;;4902207;29;20119;-95
2022/11/18 09:52:43;;;;;;;41.83;24.30;;;;;;;;;;4902398;29;20172;-95
2022/11/18 09:55:16;;;;;;;40.28;23.15;;;;;;;;;;4902656;29;20024;-94
2022/11/18 09:57:52;;;;;;;41.80;22.73;;;;;;;;;;4922221;29;20032;-96
2022/11/18 10:00:23;;;;;;;41.90;22.55;;;;;;;;;;4903074;29;20032;-93
2022/11/18 10:02:52;;;;;;;42.35;23.33;;;;;;;;;;4908137;29;20024;-94
2022/11/18 10:05:37;;;;;;;38.95;21.85;;;;;;;;;;4906623;29;20035;-96
2022/11/18 10:08:25;;;;;;;39.15;22.17;;;;;;;;;;4904878;29;20032;-94
2022/11/18 10:10:55;;;;;;;40.72;23.05;;;;;;;;;;4903602;29;20118;-96
2022/11/18 10:13:34;;;;;;;48.10;26.92;;;;;;;;;;4922227;29;20035;-95
2022/11/18 10:16:19;;;;;;;42.38;23.80;;;;;;;;;;4903334;29;20027;-93
2022/11/18 10:19:04;;;;;;;46.03;24.00;;;;;;;;;;4887018;29;20099;-92
2022/11/18 10:21:48;;;;;;;37.53;21.77;;;;;;;;;;4901979;29;20466;-95
2022/11/18 10:24:18;;;;;;;29.92;18.67;;;;;;;;;;4901813;29;20047;-95
2022/11/18 10:26:44;;;;;;;23.88;15.20;;;;;;;;;;4902401;29;20497;-93
2022/11/18 10:29:28;;;;;;;24.42;15.98;;;;;;;;;;4927936;29;20063;-94
2022/11/18 10:32:14;;;;;;;21.77;14.27;;;;;;;;;;4923197;29;20052;-92
2022/11/18 10:35:02;;;;;;;19.48;12.95;;;;;;;;;;4905872;29;20044;-96
2022/11/18 10:37:30;;;;;;;19.70;12.65;;;;;;;;;;4903532;29;20075;-95
2022/11/18 10:43:12;;;;;;;18.25;12.65;;;;;;;;;;4917367;29;20039;-94
2022/11/18 10:45:40;;;;;;;18.70;11.50;;;;;;;;;;4884194;29;20053;-94
2022/11/18 10:48:07;;;;;;;18.30;11.13;;;;;;;;;;4883211;29;20422;-95
2022/11/18 10:50:42;;;;;;;18.10;11.50;;;;;;;;;;4884114;29;20028;-96
2022/11/18 10:53:27;;;;;;;18.02;11.07;;;;;;;;;;4884571;29;20040;-96
2022/11/18 10:56:04;;;;;;;17.92;11.50;;;;;;;;;;4883590;29;20375;-95
2022/11/18 10:58:31;;;;;;;19.98;11.55;;;;;;;;;;4883478;29;20036;-96
2022/11/18 11:01:38;;;;;;;16.67;10.20;;;;;;;;;;4883948;29;20025;-95
2022/11/18 11:04:07;;;;;;;18.23;10.07;;;;;;;;;;4884843;29;20420;-95
2022/11/18 11:06:37;;;;;;;17.20;10.90;;;;;;;;;;4885912;29;20029;-96
2022/11/18 11:09:09;;;;;;;17.85;11.20;;;;;;;;;;4886676;29;20012;-95
2022/11/18 11:11:53;;;;;;;15.32;10.07;;;;;;;;;;4884324;29;20032;-95
2022/11/18 11:14:59;;;;;;;18.15;9.90;;;;;;;;;;4884975;29;20036;-96
2022/11/18 11:17:28;;;;;;;18.13;10.35;;;;;;;;;;4809202;29;20026;-95
2022/11/18 11:19:54;;;;;;;16.05;9.75;;;;;;;;;;4809146;29;20122;-96
2022/11/18 11:22:21;;;;;;;15.20;9.55;;;;;;;;;;4846136;29;20044;-95
2022/11/18 11:24:50;;;;;;;15.60;9.93;;;;;;;;;;4883638;29;20028;-95
2022/11/18 11:27:21;;;;;;;17.05;9.50;;;;;;;;;;4901077;29;20032;-95
2022/11/18 11:29:59;;;;;;;17.42;9.82;;;;;;;;;;4900869;29;20552;-96
2022/11/18 11:32:32;;;;;;;14.73;9.20;;;;;;;;;;4902406;29;20072;-96
2022/11/18 11:35:10;;;;;;;17.47;10.87;;;;;;;;;;4902381;29;20450;-95
2022/11/18 11:37:40;;;;;;;16.63;10.00;;;;;;;;;;4902315;29;20749;-96
2022/11/18 11:40:24;;;;;;;18.38;11.05;;;;;;;;;;4902698;29;20032;-96
2022/11/18 12:06:00;;;;;;;18.55;10.77;;;;;;;;;;4889636;29;20052;-95
2022/11/18 12:27:14;;;;;;;17.20;9.48;;;;;;;;;;4922059;29;20029;-96
2022/11/18 12:30:37;;;;;;;14.75;9.15;;;;;;;;;;4910464;29;20036;-96
2022/11/18 12:36:06;;;;;;;14.23;8.93;;;;;;;;;;4927989;29;20088;-93
2022/11/18 12:38:33;;;;;;;13.75;8.50;;;;;;;;;;4910257;29;20024;-93
2022/11/18 12:43:45;;;;;;;12.95;8.10;;;;;;;;;;4908249;29;20034;-95
2022/11/18 12:43:49;;;;;;;11.60;6.70;;;;;;;;;;4920845;29;20038;-94
2022/11/18 12:46:34;;;;;;;10.68;6.68;;;;;;;;;;4903709;29;20036;-95
2022/11/18 12:49:38;;;;;;;10.05;6.63;;;;;;;;;;4903651;29;20028;-93
2022/11/18 12:52:24;;;;;;;7.97;5.63;;;;;;;;;;4846871;29;20052;-95
2022/11/18 12:54:54;;;;;;;9.45;6.13;;;;;;;;;;4846898;29;20029;-95
2022/11/18 12:57:22;;;;;;;8.63;6.25;;;;;;;;;;4882379;29;20132;-92
2022/11/18 12:59:48;;;;;;;8.40;5.63;;;;;;;;;;4887714;29;20052;-93
2022/11/18 13:02:30;;;;;;;10.88;6.70;;;;;;;;;;4886513;29;20032;-92
2022/11/18 13:05:10;;;;;;;11.27;7.05;;;;;;;;;;4885165;29;20501;-93
2022/11/18 13:10:31;;;;;;;10.77;7.10;;;;;;;;;;4917846;29;20044;-93
2022/11/18 13:12:58;;;;;;;11.13;7.50;;;;;;;;;;4906312;29;20039;-92
2022/11/18 13:18:16;;;;;;;13.13;7.93;;;;;;;;;;4915130;29;20516;-92
2022/11/18 13:20:42;;;;;;;;;;;;;;;;;;4906839;29;20088;-92
2022/11/18 13:26:34;;;;;;;13.07;8.07;;;;;;;;;;4909274;29;20558;-93
2022/11/18 13:29:21;;;;;;;11.35;6.95;;;;;;;;;;4837767;29;20483;-92
2022/11/18 13:31:50;;;;;;;11.60;7.55;;;;;;;;;;4901349;29;20045;-92
2022/11/18 13:34:16;;;;;;;10.18;6.72;;;;;;;;;;4902240;29;20115;-91
2022/11/18 13:36:45;;;;;;;10.70;6.53;;;;;;;;;;4905685;29;20032;-92
2022/11/18 13:39:22;;;;;;;12.02;7.57;;;;;;;;;;4907703;29;20025;-91
2022/11/18 13:41:59;;;;;;;10.73;6.82;;;;;;;;;;4908318;29;20093;-92
2022/11/18 13:44:26;;;;;;;10.18;6.55;;;;;;;;;;4884382;29;20032;-90
2022/11/18 13:46:56;;;;;;;9.77;6.47;;;;;;;;;;4886020;29;20039;-93
2022/11/18 13:49:24;;;;;;;10.68;6.63;;;;;;;;;;4884502;29;20490;-91
2022/11/18 13:51:55;;;;;;;10.98;6.70;;;;;;;;;;4887190;29;20100;-96
2022/11/18 13:54:34;;;;;;;;;;;;;;;;;;;;;
2022/11/18 13:57:10;;;;;;;9.82;6.40;;;;;;;;;;4937396;29;20052;-96
2022/11/18 14:02:28;;;;;;;10.82;6.38;;;;;;;;;;5003004;23;20040;-94
2022/11/18 14:05:00;;;;;;;8.77;5.97;;;;;;;;;;4926722;29;20035;-96
2022/11/18 14:12:52;;;;;;;9.75;6.47;;;;;;;;;;5263069;23;20050;-96
2022/11/18 14:15:33;;;;;;;10.73;6.40;;;;;;;;;;4955985;23;20052;-95
2022/11/18 14:18:00;;;;;;;12.00;7.45;;;;;;;;;;4922568;29;20095;-94
2022/11/18 14:20:29;;;;;;;14.85;7.97;;;;;;;;;;5095335;23;20224;-96
2022/11/18 14:22:57;;;;;;;12.05;7.82;;;;;;;;;;5125204;23;20048;-93
2022/11/18 14:27:56;;;;;;;17.83;10.10;;;;;;;;;;4903005;29;20052;-95
2022/11/18 14:30:38;;;;;;;15.85;10.07;;;;;;;;;;4889957;29;20041;-96
2022/11/18 14:33:15;;;;;;;15.50;9.55;;;;;;;;;;4928022;23;20045;-94
2022/11/18 14:35:48;;;;;;;16.13;9.48;;;;;;;;;;4903619;29;20037;-92
2022/11/18 14:44:08;;;;;;;11.63;7.68;;;;;;;;;;5486312;23;20051;-96
2022/11/18 14:46:36;;;;;;;13.10;8.05;;;;;;;;;;4948874;28;20030;-95
2022/11/18 14:52:38;;;;;;;39.53;25.33;;;;;;;;;;4876529;29;20084;-95
2022/11/18 14:55:04;;;;;;;35.25;23.60;;;;;;;;;;4872385;29;20391;-95
2022/11/18 14:57:45;;;;;;;15.15;9.52;;;;;;;;;;4972460;23;20051;-95
2022/11/18 15:00:14;;;;;;;12.80;8.35;;;;;;;;;;4915302;29;20036;-93
2022/11/18 15:02:45;;;;;;;12.77;9.45;;;;;;;;;;4937402;29;20035;-96
2022/11/18 15:05:14;;;;;;;12.05;7.70;;;;;;;;;;4929743;29;20039;-96
2022/11/18 15:20:34;;;;;;;14.43;10.73;;;;;;;;;;4925669;29;20063;-95
2022/11/18 15:23:03;;;;;;;16.30;11.65;;;;;;;;;;4914573;29;20096;-94
2022/11/18 15:25:35;;;;;;;16.25;11.60;;;;;;;;;;4913286;29;20123;-94
2022/11/18 15:28:01;;;;;;;15.00;11.65;;;;;;;;;;4971264;23;20043;-92
2022/11/18 15:30:33;;;;;;;15.50;11.40;;;;;;;;;;4930379;29;20059;-94
2022/11/18 15:33:09;;;;;;;15.73;11.23;;;;;;;;;;4934958;29;20099;-96
2022/11/18 15:45:10;;;;;;;17.85;12.88;;;;;;;;;;5261224;23;20051;-95
2022/11/18 16:27:11;;;;;;;14.68;11.30;;;;;;;;;;5074695;23;20092;-95
2022/11/18 16:29:43;;;;;;;16.92;11.98;;;;;;;;;;4932909;29;20095;-96
2022/11/18 16:34:47;;;;;;;16.90;11.52;;;;;;;;;;5168140;23;20083;-96
2022/11/18 16:37:26;;;;;;;18.60;13.00;;;;;;;;;;4935863;29;20043;-96
2022/11/18 16:50:42;;;;;;;19.33;13.18;;;;;;;;;;5487244;23;20114;-94
2022/11/18 16:53:18;;;;;;;19.20;13.18;;;;;;;;;;4897820;29;20053;-95
2022/11/18 17:07:20;;;;;;;20.42;13.32;;;;;;;;;;5320515;23;20048;-96
2022/11/18 17:09:47;;;;;;;19.23;13.27;;;;;;;;;;4922569;29;20028;-95
2022/11/18 17:12:14;;;;;;;20.95;14.32;;;;;;;;;;4923969;29;20042;-94
2022/11/18 17:14:40;;;;;;;19.48;13.70;;;;;;;;;;4906956;29;20039;-94
2022/11/18 17:17:06;;;;;;;20.77;13.43;;;;;;;;;;4903303;29;20028;-93
2022/11/18 17:19:36;;;;;;;20.05;13.43;;;;;;;;;;4905762;29;20024;-96
2022/11/18 18:27:44;;;;;;;27.48;18.00;;;;;;;;;;4965984;28;20042;-95
2022/11/18 18:30:30;;;;;;;27.45;16.50;;;;;;;;;;4962331;28;20038;-96
2022/11/18 18:33:13;;;;;;;26.20;17.42;;;;;;;;;;4957052;29;20019;-96
2022/11/18 18:35:40;;;;;;;;;;;;;;;;;;4944120;29;20027;-94
2022/11/18 18:38:22;;;;;;;;;;;;;;;;;;;;;
2022/11/18 18:49:39;;;;;;;26.75;16.08;;;;;;;;;;5503539;23;20142;-96
2022/11/18 18:52:06;;;;;;;25.23;16.77;;;;;;;;;;4888477;29;20079;-96
2022/11/18 18:55:18;;;;;;;;;;;;;;;;;;;;;
2022/11/18 19:01:13;;;;;;;;;;;;;;;;;;;;;
2022/11/18 19:03:46;;;;;;;28.13;17.02;;;;;;;;;;4962826;29;20134;-95
2022/11/18 19:06:29;;;;;;;26.83;17.67;;;;;;;;;;4944166;29;20044;-94
2022/11/18 19:08:56;;;;;;;27.77;17.70;;;;;;;;;;4999343;23;20056;-95
2022/11/18 19:14:29;;;;;;;31.00;18.58;;;;;;;;;;4939357;29;20043;-96
2022/11/18 19:16:58;;;;;;;30.25;17.67;;;;;;;;;;4927232;29;20056;-96
2022/11/18 19:22:14;;;;;;;29.88;18.27;;;;;;;;;;4979151;23;20063;-96
2022/11/18 19:25:00;;;;;;;;;;;;;;;;;;;;;
2022/11/18 19:36:06;;;;;;;33.33;19.95;;;;;;;;;;4939176;29;20027;-94
2022/11/18 19:38:38;;;;;;;35.05;22.42;;;;;;;;;;4941525;29;20544;-96
2022/11/18 19:41:05;;;;;;;33.40;20.13;;;;;;;;;;4941704;29;20122;-94
2022/11/18 19:43:41;;;;;;;35.28;20.83;;;;;;;;;;4938791;29;20042;-96
2022/11/18 19:46:07;;;;;;;36.95;22.30;;;;;;;;;;4939613;29;20027;-94
2022/11/18 19:49:00;;;;;;;;;;;;;;;;;;;;;
2022/11/18 19:51:32;;;;;;;38.40;21.20;;;;;;;;;;4959060;29;20134;-96
2022/11/18 19:54:01;;;;;;;41.73;23.07;;;;;;;;;;4953813;29;20042;-95
2022/11/18 19:56:41;;;;;;;41.05;24.48;;;;;;;;;;4939856;29;20271;-96
2022/11/18 19:59:18;;;;;;;41.67;23.23;;;;;;;;;;4949877;29;20075;-95
2022/11/18 20:01:44;;;;;;;41.22;23.30;;;;;;;;;;4947380;29;20066;-94
2022/11/18 20:04:11;;;;;;;50.28;26.20;;;;;;;;;;4962512;29;20055;-93
2022/11/18 20:06:40;;;;;;;50.05;26.55;;;;;;;;;;4962010;29;20463;-96
2022/11/18 20:09:14;;;;;;;46.60;26.02;;;;;;;;;;4962633;29;20117;-94
2022/11/18 20:11:51;;;;;;;47.55;25.63;;;;;;;;;;4954389;29;20031;-96
2022/11/18 20:14:18;;;;;;;50.03;26.88;;;;;;;;;;4958894;29;20031;-96
2022/11/18 20:16:50;;;;;;;53.47;28.88;;;;;;;;;;4960118;29;20117;-95
2022/11/18 20:19:17;;;;;;;54.10;27.52;;;;;;;;;;4960594;29;20488;-96
2022/11/18 20:21:43;;;;;;;58.17;29.88;;;;;;;;;;4956368;29;20031;-96
2022/11/18 20:24:15;;;;;;;62.05;30.30;;;;;;;;;;4964683;29;20091;-96
2022/11/18 20:26:42;;;;;;;62.88;31.13;;;;;;;;;;4957188;29;20027;-95
2022/11/18 20:29:11;;;;;;;63.70;31.80;;;;;;;;;;4960553;29;20031;-95
2022/11/18 20:31:37;;;;;;;66.68;31.05;;;;;;;;;;4952989;29;20051;-94
2022/11/18 20:34:08;;;;;;;64.93;32.13;;;;;;;;;;4958328;29;20031;-95
2022/11/18 20:36:35;;;;;;;61.40;31.13;;;;;;;;;;4952068;29;20025;-95
2022/11/18 20:39:03;;;;;;;59.83;29.30;;;;;;;;;;4957547;29;20032;-95
2022/11/18 20:41:37;;;;;;;59.13;29.13;;;;;;;;;;4951866;29;20115;-95
2022/11/18 20:44:06;;;;;;;60.42;30.42;;;;;;;;;;4957867;29;20031;-95
2022/11/18 20:46:35;;;;;;;62.25;30.45;;;;;;;;;;4951599;29;20027;-95
2022/11/18 20:49:01;;;;;;;64.15;31.40;;;;;;;;;;4958439;29;20075;-95
2022/11/18 20:51:28;;;;;;;61.28;30.05;;;;;;;;;;4950646;29;20437;-93
2022/11/18 20:53:59;;;;;;;61.30;30.88;;;;;;;;;;4958089;28;20027;-94
2022/11/18 20:56:26;;;;;;;59.10;29.88;;;;;;;;;;4951365;29;20059;-96
2022/11/18 20:59:17;;;;;;;58.38;30.15;;;;;;;;;;4957900;29;20038;-96
2022/11/18 21:01:48;;;;;;;57.83;30.65;;;;;;;;;;4958664;29;20035;-96
2022/11/18 21:04:17;;;;;;;63.47;31.55;;;;;;;;;;4957392;29;20027;-94
2022/11/18 21:06:46;;;;;;;61.58;30.45;;;;;;;;;;4953391;29;20028;-95
2022/11/18 21:09:13;;;;;;;60.17;29.00;;;;;;;;;;4957513;29;20118;-95
2022/11/18 21:11:39;;;;;;;60.53;29.95;;;;;;;;;;4954168;29;20039;-95
2022/11/18 21:14:17;;;;;;;61.70;29.55;;;;;;;;;;4957677;29;20035;-94
2022/11/18 21:16:44;;;;;;;62.88;31.33;;;;;;;;;;4954793;28;20114;-95
2022/11/18 21:19:21;;;;;;;68.70;31.33;;;;;;;;;;4958463;29;20027;-96
2022/11/18 21:21:47;;;;;;;60.75;28.25;;;;;;;;;;4955102;29;20439;-94
2022/11/18 21:24:16;;;;;;;64.53;31.00;;;;;;;;;;4957952;29;20050;-96
2022/11/18 21:30:16;;;;;;;56.77;28.40;;;;;;;;;;4961169;29;20543;-96
2022/11/18 21:32:50;;;;;;;58.50;28.13;;;;;;;;;;4947613;29;20051;-95
2022/11/18 21:35:42;;;;;;;60.60;30.75;;;;;;;;;;4959169;29;20027;-96
2022/11/18 21:38:17;;;;;;;59.72;29.05;;;;;;;;;;4955829;29;20042;-96
2022/11/18 21:40:50;;;;;;;59.60;28.88;;;;;;;;;;4952403;29;20023;-94
2022/11/18 21:43:37;;;;;;;55.15;28.02;;;;;;;;;;4957853;29;20034;-96
2022/11/18 21:46:04;;;;;;;54.45;27.05;;;;;;;;;;4959452;29;20035;-94
2022/11/18 21:48:36;;;;;;;56.90;27.40;;;;;;;;;;4951261;29;20051;-95
2022/11/18 21:51:03;;;;;;;58.08;27.05;;;;;;;;;;4956768;29;20032;-96
2022/11/18 21:53:32;;;;;;;53.17;27.77;;;;;;;;;;4950240;29;20117;-95
2022/11/18 21:56:12;;;;;;;52.85;26.75;;;;;;;;;;4957248;29;20032;-96
2022/11/18 21:58:41;;;;;;;49.38;26.17;;;;;;;;;;4952296;29;20023;-95
2022/11/18 22:01:36;;;;;;;50.17;26.25;;;;;;;;;;4956860;29;20023;-96
2022/11/18 22:04:03;;;;;;;47.30;25.48;;;;;;;;;;4958098;29;20030;-94
2022/11/18 22:06:32;;;;;;;49.75;25.38;;;;;;;;;;4949988;29;20027;-95
2022/11/18 22:09:04;;;;;;;52.17;25.73;;;;;;;;;;4957136;29;20081;-96
2022/11/18 22:11:33;;;;;;;48.50;23.37;;;;;;;;;;4950313;29;20035;-95
2022/11/18 22:13:59;;;;;;;46.70;23.67;;;;;;;;;;4956811;29;20087;-94
2022/11/18 22:16:26;;;;;;;50.95;24.55;;;;;;;;;;4949280;29;20038;-95
2022/11/18 22:19:04;;;;;;;41.55;23.73;;;;;;;;;;4957406;29;20031;-96
2022/11/18 22:21:30;;;;;;;44.03;23.95;;;;;;;;;;4956306;29;20059;-94
2022/11/18 22:24:08;;;;;;;;;;;;;;;;;;;;;
2022/11/18 22:26:37;;;;;;;46.70;24.73;;;;;;;;;;4958339;29;20050;-95
2022/11/18 22:29:13;;;;;;;42.92;23.33;;;;;;;;;;4954520;28;20063;-96
2022/11/18 22:31:49;;;;;;;39.78;22.27;;;;;;;;;;4950737;29;20081;-94
2022/11/18 22:34:34;;;;;;;;;;;;;;;;;;;;;
2022/11/18 22:37:08;;;;;;;46.90;23.67;;;;;;;;;;4960861;29;20575;-95
2022/11/18 22:39:52;;;;;;;;;;;;;;;;;;;;;
2022/11/18 22:45:21;;;;;;;45.10;22.88;;;;;;;;;;4960158;29;20038;-96
2022/11/18 22:47:47;;;;;;;;;;;;;;;;;;4955846;29;20031;-96
2022/11/18 22:50:21;;;;;;;42.35;21.38;;;;;;;;;;4957784;29;19917;-94
2022/11/18 22:53:08;;;;;;;46.38;24.10;;;;;;;;;;4954690;29;20036;-96
2022/11/18 22:55:39;;;;;;;44.75;24.00;;;;;;;;;;4958232;29;20031;-96
2022/11/18 22:58:25;;;;;;;45.35;23.83;;;;;;;;;;4960049;29;20063;-96
2022/11/18 23:01:09;;;;;;;;;;;;;;;;;;;;;
2022/11/18 23:03:40;;;;;;;47.60;24.40;;;;;;;;;;4961842;29;20087;-96
2022/11/18 23:06:09;;;;;;;46.33;24.02;;;;;;;;;;4957209;29;20397;-96
2022/11/18 23:08:47;;;;;;;;;;;;;;;;;;;;;
2022/11/18 23:14:10;;;;;;;50.85;25.52;;;;;;;;;;4897832;29;20033;-96
2022/11/18 23:16:51;;;;;;;49.10;25.42;;;;;;;;;;4951699;29;20039;-96
2022/11/18 23:19:22;;;;;;;48.03;25.38;;;;;;;;;;4961177;28;20083;-95
2022/11/18 23:21:53;;;;;;;50.47;25.60;;;;;;;;;;4979148;28;20078;-96
2022/11/18 23:24:21;;;;;;;48.83;24.90;;;;;;;;;;4967054;28;20035;-96
2022/11/18 23:26:48;;;;;;;51.95;26.52;;;;;;;;;;4964272;29;20031;-96
2022/11/18 23:29:21;;;;;;;50.42;26.20;;;;;;;;;;4959744;29;20051;-96
2022/11/18 23:31:48;;;;;;;54.10;26.25;;;;;;;;;;4955241;29;20484;-95
2022/11/18 23:34:22;;;;;;;55.55;26.02;;;;;;;;;;4958123;29;20382;-96
2022/11/18 23:36:51;;;;;;;51.78;26.20;;;;;;;;;;4955070;29;20058;-96
2022/11/18 23:39:18;;;;;;;51.53;26.42;;;;;;;;;;4958991;28;20089;-96
2022/11/18 23:41:48;;;;;;;48.35;25.38;;;;;;;;;;4962611;29;20031;-95
2022/11/18 23:44:15;;;;;;;52.40;25.50;;;;;;;;;;4961481;29;20030;-96
2022/11/18 23:46:41;;;;;;;54.67;27.58;;;;;;;;;;4958161;29;20031;-96
2022/11/18 23:49:14;;;;;;;53.33;27.08;;;;;;;;;;4964568;29;20122;-96
2022/11/18 23:51:43;;;;;;;51.63;25.20;;;;;;;;;;4956935;29;20031;-96
2022/11/18 23:54:32;;;;;;;50.70;25.67;;;;;;;;;;4960597;29;20400;-96
